createdAt,value
2019-02-04T00:00:35.196Z,66.90
2019-02-04T00:09:19.000Z,65.50
2019-02-04T00:13:24.771Z,58.00
2019-02-04T00:23:16.875Z,59.60
2019-02-04T00:27:22.566Z,58.90
2019-02-04T00:31:28.224Z,59.10
2019-02-04T00:35:34.043Z,59.30
2019-02-04T00:39:39.713Z,59.50
2019-02-04T00:53:58.882Z,60.00
2019-02-04T00:58:04.805Z,60.30
2019-02-04T01:02:10.839Z,59.70
2019-02-04T01:06:16.605Z,60.10
2019-02-04T01:10:30.794Z,60.90
2019-02-04T01:14:36.475Z,61.10
2019-02-04T01:18:42.201Z,65.60
2019-02-04T01:22:47.943Z,67.50
2019-02-04T01:26:53.620Z,65.70
2019-02-04T01:30:59.309Z,69.20
2019-02-04T01:35:05.885Z,70.40
2019-02-04T01:39:11.971Z,68.10
2019-02-04T01:43:17.644Z,66.40
2019-02-04T01:47:23.628Z,69.10
2019-02-04T01:51:29.338Z,72.40
2019-02-04T01:55:34.991Z,70.40
2019-02-04T01:59:40.667Z,69.90
2019-02-04T02:03:46.349Z,66.00
2019-02-04T02:07:52.164Z,69.90
2019-02-04T02:11:57.898Z,72.40
2019-02-04T02:16:03.932Z,74.70
2019-02-04T02:20:14.484Z,73.80
2019-02-04T02:24:20.152Z,74.80
2019-02-04T02:28:25.854Z,69.40
2019-02-04T02:32:31.542Z,71.40
2019-02-04T02:36:37.483Z,71.50
2019-02-04T02:40:43.170Z,73.00
2019-02-04T02:44:48.855Z,73.10
2019-02-04T02:48:54.554Z,74.20
2019-02-04T02:53:00.387Z,73.50
2019-02-04T02:57:06.210Z,71.40
2019-02-04T03:01:12.142Z,71.80
2019-02-04T03:05:18.896Z,71.00
2019-02-04T03:09:24.574Z,69.60
2019-02-04T03:13:30.242Z,70.10
2019-02-04T03:17:35.940Z,72.00
2019-02-04T03:21:41.620Z,73.30
2019-02-04T03:25:47.297Z,77.50
2019-02-04T03:29:53.005Z,75.30
2019-02-04T03:33:58.662Z,75.60
2019-02-04T03:38:04.533Z,77.50
2019-02-04T03:42:10.582Z,76.00
2019-02-04T03:46:16.504Z,72.70
2019-02-04T03:50:22.600Z,75.10
2019-02-04T03:54:28.729Z,74.40
2019-02-04T03:58:34.448Z,73.00
2019-02-04T04:02:40.443Z,72.00
2019-02-04T04:06:46.165Z,73.70
2019-02-04T04:10:51.861Z,75.20
2019-02-04T04:14:57.609Z,77.60
2019-02-04T04:19:03.293Z,73.60
2019-02-04T04:23:08.978Z,74.00
2019-02-04T04:27:14.673Z,74.10
2019-02-04T04:31:20.352Z,73.00
2019-02-04T04:35:26.209Z,73.50
2019-02-04T04:39:31.964Z,76.20
2019-02-04T04:43:37.731Z,76.10
2019-02-04T04:47:43.426Z,74.90
2019-02-04T04:51:49.140Z,72.50
2019-02-04T04:55:54.825Z,79.30
2019-02-04T05:00:00.507Z,76.60
2019-02-04T05:04:07.328Z,76.60
2019-02-04T05:08:13.025Z,77.50
2019-02-04T05:12:18.935Z,76.70
2019-02-04T05:16:24.686Z,77.70
2019-02-04T05:20:30.364Z,78.00
2019-02-04T05:24:36.052Z,78.60
2019-02-04T05:28:41.733Z,79.20
2019-02-04T05:32:47.656Z,77.00
2019-02-04T05:36:53.345Z,73.50
2019-02-04T05:40:59.414Z,75.00
2019-02-04T05:45:08.717Z,79.00
2019-02-04T05:49:14.383Z,75.10
2019-02-04T05:53:20.074Z,80.20
2019-02-04T05:57:25.756Z,79.10
2019-02-04T06:01:31.446Z,79.70
2019-02-04T06:05:37.137Z,75.60
2019-02-04T06:09:43.791Z,81.20
2019-02-04T06:13:49.549Z,77.80
2019-02-04T06:17:56.291Z,78.00
2019-02-04T06:22:02.004Z,81.50
2019-02-04T06:26:07.806Z,79.10
2019-02-04T06:30:16.989Z,77.30
2019-02-04T06:34:23.017Z,77.10
2019-02-04T06:38:28.726Z,77.90
2019-02-04T06:42:34.420Z,80.10
2019-02-04T06:46:40.129Z,78.40
2019-02-04T06:50:45.822Z,74.30
2019-02-04T06:54:51.501Z,73.60
2019-02-04T07:00:16.218Z,73.90
2019-02-04T07:10:28.309Z,76.10
2019-02-04T07:15:19.076Z,73.70
2019-02-04T07:19:24.862Z,73.90
2019-02-04T07:23:30.624Z,75.20
2019-02-04T07:27:36.564Z,76.90
2019-02-04T07:31:42.265Z,76.10
2019-02-04T07:35:48.005Z,76.30
2019-02-04T07:39:53.716Z,77.30
2019-02-04T07:43:59.377Z,81.00
2019-02-04T07:48:05.331Z,75.20
2019-02-04T07:52:11.181Z,74.40
2019-02-04T07:56:17.214Z,69.30
2019-02-04T08:00:32.583Z,69.10
2019-02-04T08:04:38.235Z,67.80
2019-02-04T08:08:43.985Z,68.50
2019-02-04T08:13:00.595Z,66.30
2019-02-04T08:16:57.130Z,67.20
2019-02-04T08:21:02.948Z,67.60
2019-02-04T08:25:15.115Z,70.70
2019-02-04T08:29:21.029Z,72.30
2019-02-04T08:33:26.742Z,65.30
2019-02-04T08:37:32.420Z,65.00
2019-02-04T08:41:38.190Z,64.80
2019-02-04T08:45:44.068Z,63.20
2019-02-04T08:49:58.046Z,63.80
2019-02-04T08:53:58.799Z,64.10
2019-02-04T08:58:05.103Z,64.00
2019-02-04T09:02:10.986Z,63.00
2019-02-04T09:06:16.747Z,62.90
2019-02-04T09:10:26.902Z,58.00
2019-02-04T09:14:32.756Z,53.90
2019-02-04T09:18:44.830Z,54.90
2019-02-04T09:22:46.840Z,57.00
2019-02-04T09:26:52.599Z,53.30
2019-02-04T09:30:58.313Z,50.10
2019-02-04T09:35:05.966Z,45.00
2019-02-04T09:39:12.293Z,42.30
2019-02-04T09:43:18.248Z,40.90
2019-02-04T09:47:23.980Z,41.10
2019-02-04T09:51:29.683Z,40.20
2019-02-04T09:55:38.287Z,41.50
2019-02-04T09:59:43.993Z,42.70
2019-02-04T10:03:49.707Z,45.10
2019-02-04T10:07:55.452Z,39.70
2019-02-04T10:12:01.298Z,40.30
2019-02-04T10:16:07.547Z,37.90
2019-02-04T10:20:20.282Z,35.90
2019-02-04T10:24:26.006Z,35.70
2019-02-04T10:28:31.848Z,35.40
2019-02-04T10:32:37.551Z,33.70
2019-02-04T10:36:43.481Z,37.20
2019-02-04T10:40:49.190Z,38.20
2019-02-04T10:44:54.899Z,37.70
2019-02-04T10:49:00.671Z,38.50
2019-02-04T10:53:08.175Z,40.40
2019-02-04T10:57:13.864Z,42.70
2019-02-04T11:06:29.962Z,37.80
2019-02-04T11:10:36.434Z,37.40
2019-02-04T11:14:42.156Z,38.80
2019-02-04T11:18:47.845Z,35.60
2019-02-04T11:22:53.825Z,30.30
2019-02-04T11:26:59.570Z,28.80
2019-02-04T11:31:05.773Z,27.20
2019-02-04T11:35:11.771Z,26.00
2019-02-04T11:39:17.481Z,24.70
2019-02-04T11:43:23.460Z,25.20
2019-02-04T11:47:29.452Z,24.40
2019-02-04T11:51:35.126Z,24.20
2019-02-04T11:55:41.079Z,24.00
2019-02-04T11:59:46.775Z,24.00
2019-02-04T12:03:52.481Z,24.20
2019-02-04T12:07:58.387Z,26.40
2019-02-04T12:12:04.335Z,26.50
2019-02-04T12:16:10.592Z,27.00
2019-02-04T12:20:18.681Z,27.30
2019-02-04T12:24:24.371Z,26.60
2019-02-04T12:28:30.159Z,28.90
2019-02-04T12:32:35.873Z,32.00
2019-02-04T12:36:41.626Z,33.90
2019-02-04T12:40:47.331Z,35.30
2019-02-04T12:44:53.211Z,33.50
2019-02-04T12:48:58.855Z,31.80
2019-02-04T12:53:05.270Z,29.40
2019-02-04T12:57:10.961Z,29.10
2019-02-04T13:01:16.667Z,27.60
2019-02-04T13:05:26.695Z,27.60
2019-02-04T13:09:32.391Z,28.30
2019-02-04T13:13:38.238Z,30.50
2019-02-04T13:17:44.474Z,30.20
2019-02-04T13:21:50.193Z,29.40
2019-02-04T13:25:55.930Z,28.40
2019-02-04T13:30:01.630Z,27.90
2019-02-04T13:34:08.489Z,27.60
2019-02-04T13:38:15.208Z,27.90
2019-02-04T13:42:20.896Z,29.70
2019-02-04T13:46:26.748Z,31.60
2019-02-04T13:50:32.506Z,34.80
2019-02-04T13:54:38.333Z,36.30
2019-02-04T13:58:44.210Z,36.70
2019-02-04T14:02:58.886Z,36.70
2019-02-04T14:06:57.534Z,35.90
2019-02-04T14:11:04.451Z,36.60
2019-02-04T14:15:13.542Z,37.10
2019-02-04T14:19:19.215Z,37.80
2019-02-04T14:23:27.445Z,38.10
2019-02-04T14:27:32.491Z,39.50
2019-02-04T14:31:38.181Z,39.80
2019-02-04T14:35:44.040Z,38.90
2019-02-04T14:39:49.723Z,39.00
2019-02-04T14:43:55.491Z,40.10
2019-02-04T14:48:17.511Z,38.50
2019-02-04T14:52:29.046Z,38.20
2019-02-04T14:56:50.967Z,38.00
2019-02-04T15:01:09.799Z,38.00
2019-02-04T15:05:26.337Z,37.90
2019-02-04T15:10:01.716Z,38.00
2019-02-04T15:14:38.493Z,37.80
2019-02-04T15:19:19.845Z,37.70
2019-02-04T15:23:38.641Z,37.50
2019-02-04T15:28:00.272Z,37.30
2019-02-04T15:32:18.947Z,37.90
2019-02-04T15:36:41.064Z,38.30
2019-02-04T15:41:23.590Z,39.20
2019-02-04T15:45:56.211Z,38.60
2019-02-04T15:50:27.222Z,38.80
2019-02-04T15:55:18.021Z,38.80
2019-02-04T15:59:23.728Z,38.80
2019-02-04T16:08:19.988Z,39.20
2019-02-04T16:13:18.047Z,39.70
2019-02-04T16:17:23.722Z,39.00
2019-02-04T16:22:18.585Z,39.30
2019-02-04T16:26:24.282Z,39.60
2019-02-04T16:30:30.057Z,39.60
2019-02-04T16:35:18.127Z,40.70
2019-02-04T16:39:23.987Z,40.90
2019-02-04T16:44:17.996Z,40.90
2019-02-04T16:53:19.741Z,41.30
2019-02-04T16:57:25.446Z,41.80
2019-02-04T17:02:16.757Z,42.90
2019-02-04T17:06:22.597Z,43.60
2019-02-04T17:10:28.481Z,44.00
2019-02-04T17:15:19.105Z,44.80
2019-02-04T17:19:24.801Z,45.00
2019-02-04T17:24:18.457Z,44.70
2019-02-04T17:28:24.301Z,45.20
2019-02-04T17:33:18.108Z,45.90
2019-02-04T17:37:23.809Z,46.10
2019-02-04T17:46:21.802Z,46.10
2019-02-04T17:50:27.769Z,45.70
2019-02-04T17:54:33.453Z,45.90
2019-02-04T17:58:39.254Z,46.10
2019-02-04T18:02:44.965Z,46.30
2019-02-04T18:07:20.568Z,46.50
2019-02-04T18:11:25.227Z,47.30
2019-02-04T18:15:31.009Z,47.70
2019-02-04T18:19:36.686Z,48.90
2019-02-04T18:23:45.992Z,48.70
2019-02-04T18:27:49.877Z,48.30
2019-02-04T18:31:56.018Z,48.00
2019-02-04T18:36:02.764Z,48.90
2019-02-04T18:40:15.555Z,49.00
2019-02-04T18:44:21.484Z,49.30
2019-02-04T18:48:27.503Z,49.60
2019-02-04T18:52:33.195Z,49.50
2019-02-04T18:56:38.988Z,49.30
2019-02-04T19:06:15.092Z,50.60
2019-02-04T19:10:23.553Z,49.40
2019-02-04T19:14:29.328Z,49.10
2019-02-04T19:18:35.039Z,49.70
2019-02-04T19:22:41.642Z,50.10
2019-02-04T19:26:47.353Z,50.50
2019-02-04T19:31:03.374Z,50.00
2019-02-04T19:35:12.022Z,49.70
2019-02-04T19:39:17.731Z,50.80
2019-02-04T19:43:23.430Z,50.80
2019-02-04T19:48:17.038Z,50.50
2019-02-04T19:52:22.743Z,49.90
2019-02-04T19:56:28.491Z,49.40
2019-02-04T20:00:51.864Z,50.50
2019-02-04T20:05:24.387Z,52.00
2019-02-04T20:09:30.167Z,52.40
2019-02-04T20:13:36.399Z,57.30
2019-02-04T20:17:42.518Z,53.70
2019-02-04T20:21:48.282Z,59.40
2019-02-04T20:26:18.049Z,62.00
2019-02-04T20:30:44.589Z,64.80
2019-02-04T20:34:40.724Z,69.60
2019-02-04T20:39:19.640Z,60.90
2019-02-04T20:43:26.013Z,67.40
2019-02-04T20:47:31.843Z,61.30
2019-02-04T20:56:19.199Z,66.10
2019-02-04T21:00:30.734Z,67.10
2019-02-04T21:04:36.471Z,66.50
2019-02-04T21:08:42.285Z,67.70
2019-02-04T21:12:48.486Z,67.70
2019-02-04T21:16:54.373Z,76.30
2019-02-04T21:21:00.106Z,64.60
2019-02-04T21:25:09.817Z,65.40
2019-02-04T21:29:15.541Z,62.10
2019-02-04T21:33:21.358Z,60.30
2019-02-04T21:37:27.359Z,60.60
2019-02-04T21:41:33.093Z,59.80
2019-02-04T21:45:38.935Z,58.60
2019-02-04T21:49:44.629Z,58.40
2019-02-04T21:54:17.295Z,57.80
2019-02-04T21:58:23.016Z,58.40
2019-02-04T22:02:28.690Z,58.70
2019-02-04T22:06:36.388Z,59.00
2019-02-04T22:11:01.369Z,59.30
2019-02-04T22:15:09.175Z,59.80
2019-02-04T22:19:15.899Z,58.00
2019-02-04T22:23:21.673Z,57.60
2019-02-04T22:27:47.150Z,57.70
2019-02-04T22:31:52.825Z,58.80
2019-02-04T22:35:58.790Z,58.50
2019-02-04T22:40:07.918Z,58.90
2019-02-04T22:44:13.798Z,59.80
2019-02-04T22:48:19.508Z,59.80
2019-02-04T22:52:25.190Z,60.20
2019-02-04T22:56:30.963Z,60.50
2019-02-04T23:00:52.660Z,60.90
2019-02-04T23:04:58.360Z,60.60
2019-02-04T23:09:07.499Z,59.60
2019-02-04T23:13:14.398Z,58.60
2019-02-04T23:17:20.145Z,58.80
2019-02-04T23:21:25.919Z,57.70
2019-02-04T23:25:42.699Z,56.80
2019-02-04T23:29:39.362Z,57.40
2019-02-04T23:33:45.051Z,56.20
2019-02-04T23:37:50.832Z,56.20
2019-02-04T23:41:58.386Z,55.10
2019-02-04T23:46:04.057Z,56.10
2019-02-04T23:50:16.415Z,57.10
2019-02-04T23:54:22.865Z,58.00
2019-02-04T23:58:28.558Z,57.40
